sensor_id;sensor_type;location;lat;lon;timestamp;P1;durP1;ratioP1;P2;durP2;ratioP2
15451;SDS011;7827;53.594;9.938;2023-01-24T00:01:23;35.73;;;20.87;;
15451;SDS011;7827;53.594;9.938;2023-01-24T00:03:52;34.23;;;20.07;;
15451;SDS011;7827;53.594;9.938;2023-01-24T00:06:20;39.70;;;20.43;;
15451;SDS011;7827;53.594;9.938;2023-01-24T00:08:49;36.90;;;20.47;;
15451;SDS011;7827;53.594;9.938;2023-01-24T00:11:17;36.13;;;20.00;;
15451;SDS011;7827;53.594;9.938;2023-01-24T00:13:47;37.33;;;20.07;;
15451;SDS011;7827;53.594;9.938;2023-01-24T00:16:16;38.37;;;19.93;;
15451;SDS011;7827;53.594;9.938;2023-01-24T00:18:47;39.60;;;21.73;;
15451;SDS011;7827;53.594;9.938;2023-01-24T00:21:19;39.57;;;20.87;;
15451;SDS011;7827;53.594;9.938;2023-01-24T00:23:49;36.43;;;19.83;;
15451;SDS011;7827;53.594;9.938;2023-01-24T00:26:21;36.57;;;21.23;;
15451;SDS011;7827;53.594;9.938;2023-01-24T00:28:53;36.77;;;20.13;;
15451;SDS011;7827;53.594;9.938;2023-01-24T00:31:22;41.67;;;21.30;;
15451;SDS011;7827;53.594;9.938;2023-01-24T00:34:12;36.47;;;20.17;;
15451;SDS011;7827;53.594;9.938;2023-01-24T00:36:40;40.87;;;20.13;;
15451;SDS011;7827;53.594;9.938;2023-01-24T00:39:09;39.70;;;19.63;;
15451;SDS011;7827;53.594;9.938;2023-01-24T00:41:38;34.77;;;20.20;;
15451;SDS011;7827;53.594;9.938;2023-01-24T00:44:07;38.43;;;20.27;;
15451;SDS011;7827;53.594;9.938;2023-01-24T00:46:36;36.20;;;19.87;;
15451;SDS011;7827;53.594;9.938;2023-01-24T00:49:04;35.23;;;20.07;;
15451;SDS011;7827;53.594;9.938;2023-01-24T00:51:33;33.83;;;19.63;;
15451;SDS011;7827;53.594;9.938;2023-01-24T00:54:02;39.17;;;19.87;;
15451;SDS011;7827;53.594;9.938;2023-01-24T00:56:30;41.50;;;20.50;;
15451;SDS011;7827;53.594;9.938;2023-01-24T00:58:59;38.23;;;19.37;;
15451;SDS011;7827;53.594;9.938;2023-01-24T01:01:28;49.07;;;23.60;;
15451;SDS011;7827;53.594;9.938;2023-01-24T01:03:57;38.77;;;20.80;;
15451;SDS011;7827;53.594;9.938;2023-01-24T01:06:25;36.67;;;20.60;;
15451;SDS011;7827;53.594;9.938;2023-01-24T01:08:54;34.87;;;20.27;;
15451;SDS011;7827;53.594;9.938;2023-01-24T01:11:22;34.50;;;18.83;;
15451;SDS011;7827;53.594;9.938;2023-01-24T01:13:53;38.77;;;18.80;;
15451;SDS011;7827;53.594;9.938;2023-01-24T01:16:22;38.17;;;19.33;;
15451;SDS011;7827;53.594;9.938;2023-01-24T01:18:54;34.03;;;18.50;;
15451;SDS011;7827;53.594;9.938;2023-01-24T01:21:22;33.83;;;19.63;;
15451;SDS011;7827;53.594;9.938;2023-01-24T01:23:51;32.57;;;18.33;;
15451;SDS011;7827;53.594;9.938;2023-01-24T01:26:20;38.43;;;19.47;;
15451;SDS011;7827;53.594;9.938;2023-01-24T01:28:49;33.93;;;19.30;;
15451;SDS011;7827;53.594;9.938;2023-01-24T01:31:18;37.00;;;19.97;;
15451;SDS011;7827;53.594;9.938;2023-01-24T01:33:46;36.63;;;18.03;;
15451;SDS011;7827;53.594;9.938;2023-01-24T01:36:16;34.33;;;18.90;;
15451;SDS011;7827;53.594;9.938;2023-01-24T01:38:44;35.80;;;19.00;;
15451;SDS011;7827;53.594;9.938;2023-01-24T01:41:13;30.60;;;18.47;;
15451;SDS011;7827;53.594;9.938;2023-01-24T01:43:43;34.37;;;18.40;;
15451;SDS011;7827;53.594;9.938;2023-01-24T01:46:26;34.80;;;18.27;;
15451;SDS011;7827;53.594;9.938;2023-01-24T01:49:02;30.17;;;17.40;;
15451;SDS011;7827;53.594;9.938;2023-01-24T01:51:35;29.90;;;17.30;;
15451;SDS011;7827;53.594;9.938;2023-01-24T01:54:13;31.73;;;17.40;;
15451;SDS011;7827;53.594;9.938;2023-01-24T01:56:48;28.50;;;16.73;;
15451;SDS011;7827;53.594;9.938;2023-01-24T01:59:21;28.20;;;17.23;;
15451;SDS011;7827;53.594;9.938;2023-01-24T02:01:55;27.77;;;17.57;;
15451;SDS011;7827;53.594;9.938;2023-01-24T02:04:26;30.57;;;17.67;;
15451;SDS011;7827;53.594;9.938;2023-01-24T02:07:06;28.17;;;17.63;;
15451;SDS011;7827;53.594;9.938;2023-01-24T02:09:41;26.67;;;16.07;;
15451;SDS011;7827;53.594;9.938;2023-01-24T02:12:13;31.67;;;17.43;;
15451;SDS011;7827;53.594;9.938;2023-01-24T02:14:47;27.53;;;16.20;;
15451;SDS011;7827;53.594;9.938;2023-01-24T02:17:38;26.43;;;16.10;;
15451;SDS011;7827;53.594;9.938;2023-01-24T02:20:11;28.07;;;16.23;;
15451;SDS011;7827;53.594;9.938;2023-01-24T02:23:02;28.83;;;15.90;;
15451;SDS011;7827;53.594;9.938;2023-01-24T02:25:47;31.73;;;16.27;;
15451;SDS011;7827;53.594;9.938;2023-01-24T02:28:28;30.43;;;16.30;;
15451;SDS011;7827;53.594;9.938;2023-01-24T02:30:57;28.07;;;17.23;;
15451;SDS011;7827;53.594;9.938;2023-01-24T02:33:27;29.93;;;17.80;;
15451;SDS011;7827;53.594;9.938;2023-01-24T02:36:06;28.20;;;16.23;;
15451;SDS011;7827;53.594;9.938;2023-01-24T02:38:49;28.93;;;16.83;;
15451;SDS011;7827;53.594;9.938;2023-01-24T02:41:26;29.23;;;17.20;;
15451;SDS011;7827;53.594;9.938;2023-01-24T02:44:03;33.53;;;18.17;;
15451;SDS011;7827;53.594;9.938;2023-01-24T02:46:38;29.97;;;17.77;;
15451;SDS011;7827;53.594;9.938;2023-01-24T02:49:11;33.67;;;18.23;;
15451;SDS011;7827;53.594;9.938;2023-01-24T02:51:41;30.23;;;17.27;;
15451;SDS011;7827;53.594;9.938;2023-01-24T02:54:27;33.77;;;16.53;;
15451;SDS011;7827;53.594;9.938;2023-01-24T02:56:57;31.70;;;17.80;;
15451;SDS011;7827;53.594;9.938;2023-01-24T02:59:42;34.07;;;18.27;;
15451;SDS011;7827;53.594;9.938;2023-01-24T03:02:12;29.77;;;17.53;;
15451;SDS011;7827;53.594;9.938;2023-01-24T03:04:40;29.60;;;17.47;;
15451;SDS011;7827;53.594;9.938;2023-01-24T03:07:08;29.13;;;17.13;;
15451;SDS011;7827;53.594;9.938;2023-01-24T03:09:42;28.67;;;17.20;;
15451;SDS011;7827;53.594;9.938;2023-01-24T03:12:20;28.87;;;17.10;;
15451;SDS011;7827;53.594;9.938;2023-01-24T03:15:06;29.60;;;17.50;;
15451;SDS011;7827;53.594;9.938;2023-01-24T03:17:57;30.70;;;16.87;;
15451;SDS011;7827;53.594;9.938;2023-01-24T03:20:46;29.07;;;17.50;;
15451;SDS011;7827;53.594;9.938;2023-01-24T03:23:32;30.07;;;16.87;;
15451;SDS011;7827;53.594;9.938;2023-01-24T03:26:18;27.07;;;16.90;;
15451;SDS011;7827;53.594;9.938;2023-01-24T03:29:08;31.33;;;16.40;;
15451;SDS011;7827;53.594;9.938;2023-01-24T03:31:54;25.43;;;15.47;;
15451;SDS011;7827;53.594;9.938;2023-01-24T03:34:40;29.53;;;16.50;;
15451;SDS011;7827;53.594;9.938;2023-01-24T03:37:22;27.73;;;17.20;;
15451;SDS011;7827;53.594;9.938;2023-01-24T03:40:14;33.67;;;16.97;;
15451;SDS011;7827;53.594;9.938;2023-01-24T03:42:45;32.07;;;16.10;;
15451;SDS011;7827;53.594;9.938;2023-01-24T03:45:22;29.33;;;16.63;;
15451;SDS011;7827;53.594;9.938;2023-01-24T03:47:54;30.40;;;16.70;;
15451;SDS011;7827;53.594;9.938;2023-01-24T03:50:26;28.17;;;17.47;;
15451;SDS011;7827;53.594;9.938;2023-01-24T03:53:15;30.60;;;16.40;;
15451;SDS011;7827;53.594;9.938;2023-01-24T03:55:50;29.63;;;16.17;;
15451;SDS011;7827;53.594;9.938;2023-01-24T03:58:20;31.67;;;17.97;;
15451;SDS011;7827;53.594;9.938;2023-01-24T04:00:51;25.93;;;16.07;;
15451;SDS011;7827;53.594;9.938;2023-01-24T04:03:43;28.50;;;16.73;;
15451;SDS011;7827;53.594;9.938;2023-01-24T04:06:12;26.37;;;16.50;;
15451;SDS011;7827;53.594;9.938;2023-01-24T04:08:40;29.30;;;16.83;;
15451;SDS011;7827;53.594;9.938;2023-01-24T04:11:09;29.47;;;17.87;;
15451;SDS011;7827;53.594;9.938;2023-01-24T04:13:37;34.87;;;18.07;;
15451;SDS011;7827;53.594;9.938;2023-01-24T04:16:07;30.80;;;17.20;;
15451;SDS011;7827;53.594;9.938;2023-01-24T04:19:02;26.60;;;16.10;;
15451;SDS011;7827;53.594;9.938;2023-01-24T04:21:31;28.97;;;16.67;;
15451;SDS011;7827;53.594;9.938;2023-01-24T04:23:59;28.30;;;16.80;;
15451;SDS011;7827;53.594;9.938;2023-01-24T04:26:28;27.60;;;15.70;;
15451;SDS011;7827;53.594;9.938;2023-01-24T04:28:58;27.23;;;16.70;;
15451;SDS011;7827;53.594;9.938;2023-01-24T04:31:28;29.23;;;16.47;;
15451;SDS011;7827;53.594;9.938;2023-01-24T04:34:06;28.53;;;16.50;;
15451;SDS011;7827;53.594;9.938;2023-01-24T04:36:37;16.53;;;10.57;;
15451;SDS011;7827;53.594;9.938;2023-01-24T04:39:05;14.43;;;9.83;;
15451;SDS011;7827;53.594;9.938;2023-01-24T04:41:54;18.00;;;11.57;;
15451;SDS011;7827;53.594;9.938;2023-01-24T04:44:22;20.40;;;12.30;;
15451;SDS011;7827;53.594;9.938;2023-01-24T04:46:52;18.10;;;12.57;;
15451;SDS011;7827;53.594;9.938;2023-01-24T04:49:21;20.90;;;13.43;;
15451;SDS011;7827;53.594;9.938;2023-01-24T04:51:50;24.33;;;15.33;;
15451;SDS011;7827;53.594;9.938;2023-01-24T04:54:23;23.90;;;13.50;;
15451;SDS011;7827;53.594;9.938;2023-01-24T04:56:52;23.63;;;14.33;;
15451;SDS011;7827;53.594;9.938;2023-01-24T04:59:21;18.63;;;11.27;;
15451;SDS011;7827;53.594;9.938;2023-01-24T05:01:50;16.77;;;10.87;;
15451;SDS011;7827;53.594;9.938;2023-01-24T05:04:46;14.83;;;10.40;;
15451;SDS011;7827;53.594;9.938;2023-01-24T05:07:15;19.57;;;12.27;;
15451;SDS011;7827;53.594;9.938;2023-01-24T05:09:49;17.00;;;11.73;;
15451;SDS011;7827;53.594;9.938;2023-01-24T05:12:18;17.67;;;11.93;;
15451;SDS011;7827;53.594;9.938;2023-01-24T05:14:46;18.70;;;11.43;;
15451;SDS011;7827;53.594;9.938;2023-01-24T05:17:14;18.37;;;11.63;;
15451;SDS011;7827;53.594;9.938;2023-01-24T05:19:43;17.47;;;11.67;;
15451;SDS011;7827;53.594;9.938;2023-01-24T05:22:13;18.03;;;11.70;;
15451;SDS011;7827;53.594;9.938;2023-01-24T05:24:42;18.13;;;10.80;;
15451;SDS011;7827;53.594;9.938;2023-01-24T05:27:10;17.00;;;10.97;;
15451;SDS011;7827;53.594;9.938;2023-01-24T05:29:43;16.60;;;11.17;;
15451;SDS011;7827;53.594;9.938;2023-01-24T05:32:11;17.43;;;11.40;;
15451;SDS011;7827;53.594;9.938;2023-01-24T05:34:40;15.03;;;11.17;;
15451;SDS011;7827;53.594;9.938;2023-01-24T05:37:08;13.80;;;10.33;;
15451;SDS011;7827;53.594;9.938;2023-01-24T05:39:42;17.00;;;10.93;;
15451;SDS011;7827;53.594;9.938;2023-01-24T05:42:10;19.50;;;11.23;;
15451;SDS011;7827;53.594;9.938;2023-01-24T05:44:43;17.70;;;11.07;;
15451;SDS011;7827;53.594;9.938;2023-01-24T05:47:12;14.33;;;10.07;;
15451;SDS011;7827;53.594;9.938;2023-01-24T05:49:43;16.70;;;10.43;;
15451;SDS011;7827;53.594;9.938;2023-01-24T05:52:12;11.07;;;8.43;;
15451;SDS011;7827;53.594;9.938;2023-01-24T05:54:49;14.13;;;9.60;;
15451;SDS011;7827;53.594;9.938;2023-01-24T05:57:27;12.03;;;8.50;;
15451;SDS011;7827;53.594;9.938;2023-01-24T06:00:20;13.23;;;8.97;;
15451;SDS011;7827;53.594;9.938;2023-01-24T06:03:15;15.03;;;9.57;;
15451;SDS011;7827;53.594;9.938;2023-01-24T06:05:45;14.93;;;9.33;;
15451;SDS011;7827;53.594;9.938;2023-01-24T06:08:16;14.87;;;9.47;;
15451;SDS011;7827;53.594;9.938;2023-01-24T06:10:46;13.90;;;9.77;;
15451;SDS011;7827;53.594;9.938;2023-01-24T06:13:18;15.10;;;8.80;;
15451;SDS011;7827;53.594;9.938;2023-01-24T06:15:46;11.60;;;8.67;;
15451;SDS011;7827;53.594;9.938;2023-01-24T06:18:15;11.93;;;9.30;;
15451;SDS011;7827;53.594;9.938;2023-01-24T06:20:48;12.67;;;8.97;;
15451;SDS011;7827;53.594;9.938;2023-01-24T06:23:19;12.93;;;8.30;;
15451;SDS011;7827;53.594;9.938;2023-01-24T06:25:59;13.87;;;9.70;;
15451;SDS011;7827;53.594;9.938;2023-01-24T06:28:28;15.90;;;10.13;;
15451;SDS011;7827;53.594;9.938;2023-01-24T06:30:59;14.97;;;9.43;;
15451;SDS011;7827;53.594;9.938;2023-01-24T06:33:36;15.03;;;9.90;;
15451;SDS011;7827;53.594;9.938;2023-01-24T06:36:22;13.97;;;10.03;;
15451;SDS011;7827;53.594;9.938;2023-01-24T06:39:06;13.43;;;9.53;;
15451;SDS011;7827;53.594;9.938;2023-01-24T06:41:41;16.57;;;9.73;;
15451;SDS011;7827;53.594;9.938;2023-01-24T06:44:10;14.93;;;10.00;;
15451;SDS011;7827;53.594;9.938;2023-01-24T06:46:39;15.23;;;10.33;;
15451;SDS011;7827;53.594;9.938;2023-01-24T06:49:09;12.60;;;9.07;;
15451;SDS011;7827;53.594;9.938;2023-01-24T06:51:38;13.50;;;9.90;;
15451;SDS011;7827;53.594;9.938;2023-01-24T06:54:07;13.57;;;9.17;;
15451;SDS011;7827;53.594;9.938;2023-01-24T06:56:35;12.60;;;9.10;;
15451;SDS011;7827;53.594;9.938;2023-01-24T06:59:05;13.93;;;9.20;;
15451;SDS011;7827;53.594;9.938;2023-01-24T07:01:33;12.67;;;8.93;;
15451;SDS011;7827;53.594;9.938;2023-01-24T07:04:01;15.67;;;9.93;;
15451;SDS011;7827;53.594;9.938;2023-01-24T07:06:30;15.47;;;10.53;;
15451;SDS011;7827;53.594;9.938;2023-01-24T07:08:58;14.77;;;10.50;;
15451;SDS011;7827;53.594;9.938;2023-01-24T07:11:26;14.20;;;10.33;;
15451;SDS011;7827;53.594;9.938;2023-01-24T07:13:55;14.63;;;10.17;;
15451;SDS011;7827;53.594;9.938;2023-01-24T07:16:24;14.40;;;9.87;;
15451;SDS011;7827;53.594;9.938;2023-01-24T07:18:53;15.63;;;10.03;;
15451;SDS011;7827;53.594;9.938;2023-01-24T07:21:22;17.93;;;10.77;;
15451;SDS011;7827;53.594;9.938;2023-01-24T07:23:51;13.63;;;9.13;;
15451;SDS011;7827;53.594;9.938;2023-01-24T07:26:23;15.17;;;9.57;;
15451;SDS011;7827;53.594;9.938;2023-01-24T07:28:53;13.13;;;9.30;;
15451;SDS011;7827;53.594;9.938;2023-01-24T07:31:22;14.83;;;9.73;;
15451;SDS011;7827;53.594;9.938;2023-01-24T07:33:51;11.97;;;9.10;;
15451;SDS011;7827;53.594;9.938;2023-01-24T07:36:20;12.17;;;9.27;;
15451;SDS011;7827;53.594;9.938;2023-01-24T07:38:48;13.87;;;8.93;;
15451;SDS011;7827;53.594;9.938;2023-01-24T07:41:20;15.03;;;9.53;;
15451;SDS011;7827;53.594;9.938;2023-01-24T07:43:52;13.30;;;9.70;;
15451;SDS011;7827;53.594;9.938;2023-01-24T07:46:20;13.67;;;9.93;;
15451;SDS011;7827;53.594;9.938;2023-01-24T07:48:48;14.77;;;9.03;;
15451;SDS011;7827;53.594;9.938;2023-01-24T07:51:18;15.30;;;9.87;;
15451;SDS011;7827;53.594;9.938;2023-01-24T07:53:47;14.73;;;10.07;;
15451;SDS011;7827;53.594;9.938;2023-01-24T07:56:15;16.73;;;10.57;;
15451;SDS011;7827;53.594;9.938;2023-01-24T07:58:51;15.97;;;10.47;;
15451;SDS011;7827;53.594;9.938;2023-01-24T08:01:20;18.93;;;10.90;;
15451;SDS011;7827;53.594;9.938;2023-01-24T08:03:52;14.53;;;11.17;;
15451;SDS011;7827;53.594;9.938;2023-01-24T08:06:24;14.77;;;10.90;;
15451;SDS011;7827;53.594;9.938;2023-01-24T08:08:52;17.53;;;11.63;;
15451;SDS011;7827;53.594;9.938;2023-01-24T08:11:21;15.03;;;10.80;;
15451;SDS011;7827;53.594;9.938;2023-01-24T08:13:49;17.03;;;12.10;;
15451;SDS011;7827;53.594;9.938;2023-01-24T08:16:17;17.73;;;10.50;;
15451;SDS011;7827;53.594;9.938;2023-01-24T08:18:50;16.17;;;11.17;;
15451;SDS011;7827;53.594;9.938;2023-01-24T08:21:18;18.47;;;11.90;;
15451;SDS011;7827;53.594;9.938;2023-01-24T08:23:48;17.23;;;10.83;;
15451;SDS011;7827;53.594;9.938;2023-01-24T08:26:16;18.00;;;10.13;;
15451;SDS011;7827;53.594;9.938;2023-01-24T08:28:46;14.13;;;10.10;;
15451;SDS011;7827;53.594;9.938;2023-01-24T08:31:15;16.73;;;11.43;;
15451;SDS011;7827;53.594;9.938;2023-01-24T08:33:43;17.43;;;11.17;;
15451;SDS011;7827;53.594;9.938;2023-01-24T08:36:11;16.47;;;11.40;;
15451;SDS011;7827;53.594;9.938;2023-01-24T08:38:39;15.93;;;11.63;;
15451;SDS011;7827;53.594;9.938;2023-01-24T08:41:09;15.67;;;10.97;;
15451;SDS011;7827;53.594;9.938;2023-01-24T08:43:37;15.40;;;11.20;;
15451;SDS011;7827;53.594;9.938;2023-01-24T08:46:06;19.30;;;11.77;;
15451;SDS011;7827;53.594;9.938;2023-01-24T08:48:34;16.27;;;10.80;;
15451;SDS011;7827;53.594;9.938;2023-01-24T08:51:03;17.57;;;11.77;;
15451;SDS011;7827;53.594;9.938;2023-01-24T08:53:33;19.80;;;11.43;;
15451;SDS011;7827;53.594;9.938;2023-01-24T08:56:01;17.50;;;10.80;;
15451;SDS011;7827;53.594;9.938;2023-01-24T08:58:32;13.70;;;10.10;;
15451;SDS011;7827;53.594;9.938;2023-01-24T09:01:04;15.70;;;11.47;;
15451;SDS011;7827;53.594;9.938;2023-01-24T09:03:33;20.07;;;12.33;;
15451;SDS011;7827;53.594;9.938;2023-01-24T09:06:04;18.50;;;11.90;;
15451;SDS011;7827;53.594;9.938;2023-01-24T09:08:33;18.00;;;11.83;;
15451;SDS011;7827;53.594;9.938;2023-01-24T09:11:02;15.63;;;11.33;;
15451;SDS011;7827;53.594;9.938;2023-01-24T09:13:32;15.63;;;11.20;;
15451;SDS011;7827;53.594;9.938;2023-01-24T09:16:00;19.57;;;11.47;;
15451;SDS011;7827;53.594;9.938;2023-01-24T09:18:29;19.83;;;12.20;;
15451;SDS011;7827;53.594;9.938;2023-01-24T09:20:59;15.97;;;12.27;;
15451;SDS011;7827;53.594;9.938;2023-01-24T09:23:29;21.47;;;11.93;;
15451;SDS011;7827;53.594;9.938;2023-01-24T09:25:57;17.37;;;12.33;;
15451;SDS011;7827;53.594;9.938;2023-01-24T09:28:26;18.40;;;12.10;;
15451;SDS011;7827;53.594;9.938;2023-01-24T09:30:55;16.57;;;11.53;;
15451;SDS011;7827;53.594;9.938;2023-01-24T09:33:24;15.97;;;11.67;;
15451;SDS011;7827;53.594;9.938;2023-01-24T09:35:53;18.60;;;11.37;;
15451;SDS011;7827;53.594;9.938;2023-01-24T09:38:23;15.63;;;11.33;;
15451;SDS011;7827;53.594;9.938;2023-01-24T09:40:54;17.37;;;10.43;;
15451;SDS011;7827;53.594;9.938;2023-01-24T09:46:28;15.97;;;11.13;;
15451;SDS011;7827;53.594;9.938;2023-01-24T09:49:12;16.60;;;11.77;;
15451;SDS011;7827;53.594;9.938;2023-01-24T09:51:48;14.43;;;10.87;;
15451;SDS011;7827;53.594;9.938;2023-01-24T09:54:27;15.97;;;10.60;;
15451;SDS011;7827;53.594;9.938;2023-01-24T09:57:04;15.57;;;10.53;;
15451;SDS011;7827;53.594;9.938;2023-01-24T09:59:46;16.07;;;10.53;;
15451;SDS011;7827;53.594;9.938;2023-01-24T10:02:21;15.93;;;10.73;;
15451;SDS011;7827;53.594;9.938;2023-01-24T10:04:53;13.47;;;9.90;;
15451;SDS011;7827;53.594;9.938;2023-01-24T10:07:32;16.40;;;11.53;;
15451;SDS011;7827;53.594;9.938;2023-01-24T10:10:37;16.87;;;10.63;;
15451;SDS011;7827;53.594;9.938;2023-01-24T10:13:23;15.07;;;11.27;;
15451;SDS011;7827;53.594;9.938;2023-01-24T10:16:26;15.47;;;10.70;;
15451;SDS011;7827;53.594;9.938;2023-01-24T10:19:51;18.53;;;11.37;;
15451;SDS011;7827;53.594;9.938;2023-01-24T10:22:42;13.37;;;11.00;;
15451;SDS011;7827;53.594;9.938;2023-01-24T10:25:40;14.83;;;11.63;;
15451;SDS011;7827;53.594;9.938;2023-01-24T10:28:22;20.17;;;11.43;;
15451;SDS011;7827;53.594;9.938;2023-01-24T10:31:00;17.43;;;11.70;;
15451;SDS011;7827;53.594;9.938;2023-01-24T10:33:37;15.10;;;10.87;;
15451;SDS011;7827;53.594;9.938;2023-01-24T10:36:16;17.27;;;11.50;;
15451;SDS011;7827;53.594;9.938;2023-01-24T10:38:55;15.53;;;11.90;;
15451;SDS011;7827;53.594;9.938;2023-01-24T10:41:24;16.63;;;11.47;;
15451;SDS011;7827;53.594;9.938;2023-01-24T10:43:58;20.43;;;12.40;;
15451;SDS011;7827;53.594;9.938;2023-01-24T10:46:38;18.03;;;12.27;;
15451;SDS011;7827;53.594;9.938;2023-01-24T10:49:22;18.70;;;12.00;;
15451;SDS011;7827;53.594;9.938;2023-01-24T10:52:10;13.97;;;10.43;;
15451;SDS011;7827;53.594;9.938;2023-01-24T10:54:44;19.37;;;10.83;;
15451;SDS011;7827;53.594;9.938;2023-01-24T11:03:00;17.00;;;11.67;;
15451;SDS011;7827;53.594;9.938;2023-01-24T11:05:42;25.63;;;12.17;;
15451;SDS011;7827;53.594;9.938;2023-01-24T11:08:17;17.30;;;11.40;;
15451;SDS011;7827;53.594;9.938;2023-01-24T11:10:50;15.47;;;11.53;;
15451;SDS011;7827;53.594;9.938;2023-01-24T11:16:06;17.60;;;11.23;;
15451;SDS011;7827;53.594;9.938;2023-01-24T11:18:51;16.20;;;11.23;;
15451;SDS011;7827;53.594;9.938;2023-01-24T11:21:24;16.60;;;11.53;;
15451;SDS011;7827;53.594;9.938;2023-01-24T11:23:59;17.00;;;11.10;;
15451;SDS011;7827;53.594;9.938;2023-01-24T11:26:50;20.83;;;11.07;;
15451;SDS011;7827;53.594;9.938;2023-01-24T11:29:23;20.10;;;11.40;;
15451;SDS011;7827;53.594;9.938;2023-01-24T11:31:52;15.53;;;10.93;;
15451;SDS011;7827;53.594;9.938;2023-01-24T11:34:31;16.07;;;10.90;;
15451;SDS011;7827;53.594;9.938;2023-01-24T11:40:33;16.50;;;10.80;;
15451;SDS011;7827;53.594;9.938;2023-01-24T11:43:20;20.53;;;10.90;;
15451;SDS011;7827;53.594;9.938;2023-01-24T11:46:13;16.60;;;10.73;;
15451;SDS011;7827;53.594;9.938;2023-01-24T11:48:57;18.40;;;11.87;;
15451;SDS011;7827;53.594;9.938;2023-01-24T11:51:46;16.47;;;10.57;;
15451;SDS011;7827;53.594;9.938;2023-01-24T11:54:39;15.07;;;10.93;;
15451;SDS011;7827;53.594;9.938;2023-01-24T11:57:24;15.13;;;10.63;;
15451;SDS011;7827;53.594;9.938;2023-01-24T12:00:06;15.67;;;10.40;;
15451;SDS011;7827;53.594;9.938;2023-01-24T12:02:59;21.93;;;11.27;;
15451;SDS011;7827;53.594;9.938;2023-01-24T12:05:53;18.07;;;11.20;;
15451;SDS011;7827;53.594;9.938;2023-01-24T12:08:38;17.93;;;10.77;;
15451;SDS011;7827;53.594;9.938;2023-01-24T12:11:22;15.00;;;10.53;;
15451;SDS011;7827;53.594;9.938;2023-01-24T12:14:12;20.13;;;10.80;;
15451;SDS011;7827;53.594;9.938;2023-01-24T12:17:04;16.93;;;10.97;;
15451;SDS011;7827;53.594;9.938;2023-01-24T12:19:57;20.03;;;11.47;;
15451;SDS011;7827;53.594;9.938;2023-01-24T12:22:57;17.13;;;11.07;;
15451;SDS011;7827;53.594;9.938;2023-01-24T12:25:35;18.10;;;11.37;;
15451;SDS011;7827;53.594;9.938;2023-01-24T12:28:08;15.33;;;11.43;;
15451;SDS011;7827;53.594;9.938;2023-01-24T12:30:44;17.43;;;12.20;;
15451;SDS011;7827;53.594;9.938;2023-01-24T12:33:21;17.37;;;11.77;;
15451;SDS011;7827;53.594;9.938;2023-01-24T12:35:58;16.27;;;11.27;;
15451;SDS011;7827;53.594;9.938;2023-01-24T12:38:36;16.50;;;12.00;;
15451;SDS011;7827;53.594;9.938;2023-01-24T12:41:11;17.13;;;12.00;;
15451;SDS011;7827;53.594;9.938;2023-01-24T12:43:54;18.37;;;12.80;;
15451;SDS011;7827;53.594;9.938;2023-01-24T12:46:35;16.10;;;11.63;;
15451;SDS011;7827;53.594;9.938;2023-01-24T12:49:16;18.93;;;11.90;;
15451;SDS011;7827;53.594;9.938;2023-01-24T12:52:14;21.47;;;12.73;;
15451;SDS011;7827;53.594;9.938;2023-01-24T12:54:51;19.00;;;12.17;;
15451;SDS011;7827;53.594;9.938;2023-01-24T12:57:27;20.00;;;12.53;;
15451;SDS011;7827;53.594;9.938;2023-01-24T13:00:03;19.70;;;12.20;;
15451;SDS011;7827;53.594;9.938;2023-01-24T13:05:57;19.00;;;11.63;;
15451;SDS011;7827;53.594;9.938;2023-01-24T13:08:39;17.53;;;12.23;;
15451;SDS011;7827;53.594;9.938;2023-01-24T13:11:23;21.87;;;12.30;;
15451;SDS011;7827;53.594;9.938;2023-01-24T13:14:01;17.13;;;11.83;;
15451;SDS011;7827;53.594;9.938;2023-01-24T13:23:36;17.73;;;11.90;;
15451;SDS011;7827;53.594;9.938;2023-01-24T13:26:26;20.33;;;13.53;;
15451;SDS011;7827;53.594;9.938;2023-01-24T13:29:26;21.47;;;13.07;;
15451;SDS011;7827;53.594;9.938;2023-01-24T13:32:10;18.87;;;11.10;;
15451;SDS011;7827;53.594;9.938;2023-01-24T13:34:42;19.03;;;12.27;;
15451;SDS011;7827;53.594;9.938;2023-01-24T13:37:17;20.90;;;13.10;;
15451;SDS011;7827;53.594;9.938;2023-01-24T13:39:58;22.70;;;13.47;;
15451;SDS011;7827;53.594;9.938;2023-01-24T13:42:34;18.47;;;13.00;;
15451;SDS011;7827;53.594;9.938;2023-01-24T13:54:33;22.93;;;12.97;;
15451;SDS011;7827;53.594;9.938;2023-01-24T14:03:03;27.17;;;14.10;;
15451;SDS011;7827;53.594;9.938;2023-01-24T14:05:46;18.07;;;12.40;;
15451;SDS011;7827;53.594;9.938;2023-01-24T14:11:50;18.10;;;12.33;;
15451;SDS011;7827;53.594;9.938;2023-01-24T14:14:31;22.07;;;13.80;;
15451;SDS011;7827;53.594;9.938;2023-01-24T14:17:26;19.33;;;12.47;;
15451;SDS011;7827;53.594;9.938;2023-01-24T14:20:21;17.83;;;13.20;;
15451;SDS011;7827;53.594;9.938;2023-01-24T14:23:04;23.33;;;13.43;;
15451;SDS011;7827;53.594;9.938;2023-01-24T14:25:47;17.67;;;12.57;;
15451;SDS011;7827;53.594;9.938;2023-01-24T14:28:23;20.07;;;13.27;;
15451;SDS011;7827;53.594;9.938;2023-01-24T14:31:00;21.20;;;14.17;;
15451;SDS011;7827;53.594;9.938;2023-01-24T14:33:43;19.07;;;13.40;;
15451;SDS011;7827;53.594;9.938;2023-01-24T14:36:23;19.80;;;13.80;;
15451;SDS011;7827;53.594;9.938;2023-01-24T14:39:10;20.73;;;14.50;;
15451;SDS011;7827;53.594;9.938;2023-01-24T14:41:47;19.37;;;14.17;;
15451;SDS011;7827;53.594;9.938;2023-01-24T14:44:21;23.93;;;14.47;;
15451;SDS011;7827;53.594;9.938;2023-01-24T14:46:53;23.80;;;13.83;;
15451;SDS011;7827;53.594;9.938;2023-01-24T14:49:28;25.27;;;15.67;;
15451;SDS011;7827;53.594;9.938;2023-01-24T14:52:00;24.17;;;13.33;;
15451;SDS011;7827;53.594;9.938;2023-01-24T14:54:43;19.90;;;13.93;;
15451;SDS011;7827;53.594;9.938;2023-01-24T14:57:23;18.50;;;13.27;;
15451;SDS011;7827;53.594;9.938;2023-01-24T15:00:03;19.53;;;13.10;;
15451;SDS011;7827;53.594;9.938;2023-01-24T15:02:49;18.97;;;13.67;;
15451;SDS011;7827;53.594;9.938;2023-01-24T15:05:21;20.43;;;13.97;;
15451;SDS011;7827;53.594;9.938;2023-01-24T15:07:52;21.00;;;13.40;;
15451;SDS011;7827;53.594;9.938;2023-01-24T15:10:22;21.60;;;14.20;;
15451;SDS011;7827;53.594;9.938;2023-01-24T15:12:51;21.60;;;13.90;;
15451;SDS011;7827;53.594;9.938;2023-01-24T15:15:23;21.20;;;13.37;;
15451;SDS011;7827;53.594;9.938;2023-01-24T15:17:54;26.67;;;14.50;;
15451;SDS011;7827;53.594;9.938;2023-01-24T15:20:28;20.90;;;14.37;;
15451;SDS011;7827;53.594;9.938;2023-01-24T15:22:57;22.03;;;13.73;;
15451;SDS011;7827;53.594;9.938;2023-01-24T15:25:30;24.50;;;15.87;;
15451;SDS011;7827;53.594;9.938;2023-01-24T15:28:07;22.17;;;16.33;;
15451;SDS011;7827;53.594;9.938;2023-01-24T15:30:51;22.90;;;16.60;;
15451;SDS011;7827;53.594;9.938;2023-01-24T15:33:21;23.13;;;16.53;;
15451;SDS011;7827;53.594;9.938;2023-01-24T15:35:50;22.37;;;15.73;;
15451;SDS011;7827;53.594;9.938;2023-01-24T15:38:25;24.13;;;17.07;;
15451;SDS011;7827;53.594;9.938;2023-01-24T15:40:57;23.87;;;17.20;;
15451;SDS011;7827;53.594;9.938;2023-01-24T15:43:30;23.70;;;16.57;;
15451;SDS011;7827;53.594;9.938;2023-01-24T15:46:15;26.67;;;16.97;;
15451;SDS011;7827;53.594;9.938;2023-01-24T15:49:20;24.77;;;17.30;;
15451;SDS011;7827;53.594;9.938;2023-01-24T15:52:15;21.57;;;16.63;;
15451;SDS011;7827;53.594;9.938;2023-01-24T15:54:48;24.63;;;16.20;;
15451;SDS011;7827;53.594;9.938;2023-01-24T15:57:24;24.40;;;16.97;;
15451;SDS011;7827;53.594;9.938;2023-01-24T15:59:57;25.43;;;17.37;;
15451;SDS011;7827;53.594;9.938;2023-01-24T16:02:36;25.70;;;17.47;;
15451;SDS011;7827;53.594;9.938;2023-01-24T16:05:07;24.53;;;17.20;;
15451;SDS011;7827;53.594;9.938;2023-01-24T16:07:40;24.10;;;16.63;;